Time;durP1;ratioP1;P1;durP2;ratioP2;P2;SDS_P1;SDS_P2;PMS_P1;PMS_P2;Temp;Humidity;BMP_temperature;BMP_pressure;BME280_temperature;BME280_humidity;BME280_pressure;Samples;Min_cycle;Max_cycle;Signal;HPM_P1;HPM_P2
2022/07/25 00:00:23;;;;;;;17.00;4.20;;;23.10;73.60;;;;;;5009951;28;20045;-71
2022/07/25 00:02:49;;;;;;;5.35;3.60;;;23.10;73.90;;;;;;5010949;28;20041;-71
2022/07/25 00:05:14;;;;;;;6.68;3.88;;;23.00;74.60;;;;;;5010990;28;20099;-71
2022/07/25 00:07:40;;;;;;;6.55;3.45;;;23.00;73.70;;;;;;5011449;28;20026;-71
2022/07/25 00:10:07;;;;;;;12.45;4.13;;;23.00;74.10;;;;;;5011027;28;20474;-71
2022/07/25 00:12:33;;;;;;;9.52;3.90;;;23.00;73.90;;;;;;5010818;28;20034;-71
2022/07/25 00:14:58;;;;;;;10.15;4.40;;;23.00;74.50;;;;;;5011011;28;20101;-70
2022/07/25 00:17:24;;;;;;;16.02;4.32;;;23.00;73.40;;;;;;5010916;28;20053;-71
2022/07/25 00:19:50;;;;;;;8.55;3.67;;;22.90;74.10;;;;;;5011175;28;20022;-71
2022/07/25 00:22:15;;;;;;;8.30;4.00;;;22.90;74.40;;;;;;5010875;28;20512;-70
2022/07/25 00:24:41;;;;;;;14.00;4.82;;;22.80;74.40;;;;;;5010709;28;20026;-71
2022/07/25 00:27:07;;;;;;;8.18;4.18;;;22.80;74.40;;;;;;5009697;28;20027;-72
2022/07/25 00:29:33;;;;;;;15.35;4.40;;;22.80;73.90;;;;;;5010939;28;20364;-71
2022/07/25 00:31:58;;;;;;;7.70;3.83;;;22.80;74.40;;;;;;5010823;28;20169;-70
2022/07/25 00:34:24;;;;;;;7.70;3.83;;;22.80;74.10;;;;;;5011109;28;20033;-69
2022/07/25 00:36:50;;;;;;;12.95;4.25;;;22.70;74.60;;;;;;5014508;28;20030;-70
2022/07/25 00:39:15;;;;;;;6.93;4.10;;;22.70;74.70;;;;;;5014392;28;20030;-71
2022/07/25 00:41:43;;;;;;;8.65;3.90;;;22.70;75.10;;;;;;5013318;28;20026;-71
2022/07/25 00:44:09;;;;;;;10.38;4.28;;;22.70;75.00;;;;;;5014318;28;20389;-71
2022/07/25 00:46:38;;;;;;;8.75;4.30;;;22.70;75.50;;;;;;5014733;28;20100;-71
2022/07/25 00:49:03;;;;;;;9.88;3.85;;;22.70;75.50;;;;;;5014504;28;20511;-71
2022/07/25 00:51:29;;;;;;;9.68;4.20;;;22.60;76.00;;;;;;5014202;28;20141;-70
2022/07/25 00:53:56;;;;;;;12.52;4.10;;;22.60;76.50;;;;;;5013223;28;20408;-72
2022/07/25 00:56:23;;;;;;;7.78;3.70;;;22.50;76.40;;;;;;5013998;28;20064;-71
2022/07/25 00:58:49;;;;;;;10.55;4.20;;;22.40;77.50;;;;;;5014518;28;20109;-70
2022/07/25 01:01:16;;;;;;;7.78;3.97;;;22.40;77.30;;;;;;5014169;28;20223;-71
2022/07/25 01:03:42;;;;;;;10.93;4.18;;;22.40;77.70;;;;;;5014009;28;20030;-71
2022/07/25 01:06:08;;;;;;;8.88;4.30;;;22.40;77.80;;;;;;5014099;28;20042;-70
2022/07/25 01:08:34;;;;;;;9.00;4.47;;;22.30;77.80;;;;;;5013901;28;20026;-71
2022/07/25 01:10:59;;;;;;;8.55;3.88;;;22.20;78.60;;;;;;5013741;28;20693;-70
2022/07/25 01:13:25;;;;;;;8.13;4.22;;;22.10;79.40;;;;;;5014365;28;20033;-71
2022/07/25 01:15:51;;;;;;;11.20;3.88;;;22.10;79.30;;;;;;5012724;28;20456;-71
2022/07/25 01:18:17;;;;;;;13.10;3.95;;;22.00;79.60;;;;;;5013853;28;20048;-70
2022/07/25 01:20:42;;;;;;;6.70;3.88;;;22.00;79.50;;;;;;5013785;28;20038;-71
2022/07/25 01:23:08;;;;;;;7.20;3.75;;;22.00;79.40;;;;;;5013789;28;20036;-70
2022/07/25 01:25:34;;;;;;;8.02;4.63;;;22.00;79.10;;;;;;5014185;28;20029;-71
2022/07/25 01:28:00;;;;;;;11.02;4.05;;;22.00;79.50;;;;;;5013520;28;20061;-71
2022/07/25 01:30:25;;;;;;;8.75;4.47;;;22.00;79.80;;;;;;5013591;28;20500;-71
2022/07/25 01:32:52;;;;;;;10.70;3.95;;;21.90;79.80;;;;;;5013727;28;20456;-70
2022/07/25 01:35:17;;;;;;;7.30;3.67;;;21.90;80.40;;;;;;5016403;28;20056;-71
2022/07/25 01:37:43;;;;;;;10.82;3.70;;;21.90;80.80;;;;;;5033732;28;20057;-70
2022/07/25 01:40:09;;;;;;;9.65;4.13;;;21.80;80.60;;;;;;5033186;28;20044;-71
2022/07/25 01:42:35;;;;;;;9.20;3.90;;;21.80;80.70;;;;;;5032127;28;20033;-71
2022/07/25 01:45:01;;;;;;;6.55;4.13;;;21.80;81.20;;;;;;5033183;28;20053;-70
2022/07/25 01:47:26;;;;;;;7.38;3.30;;;21.80;80.30;;;;;;5032642;28;20060;-71
2022/07/25 01:49:52;;;;;;;7.75;3.80;;;21.80;79.40;;;;;;5034067;28;20030;-71
2022/07/25 01:52:18;;;;;;;8.05;3.90;;;21.80;79.20;;;;;;5032964;28;20114;-72
2022/07/25 01:54:44;;;;;;;12.27;4.30;;;21.80;79.90;;;;;;5032939;28;20103;-71
2022/07/25 01:57:09;;;;;;;7.78;3.97;;;21.70;79.60;;;;;;5032994;28;20041;-71
2022/07/25 01:59:39;;;;;;;7.32;4.15;;;21.70;78.80;;;;;;5032777;28;20407;-70
2022/07/25 02:02:07;;;;;;;6.28;3.63;;;21.70;79.10;;;;;;5032826;28;20096;-70
2022/07/25 02:04:33;;;;;;;6.55;3.55;;;21.70;78.30;;;;;;5033568;28;20068;-71
2022/07/25 02:06:59;;;;;;;9.57;4.00;;;21.70;78.90;;;;;;5032684;28;20091;-71
2022/07/25 02:09:25;;;;;;;7.20;3.83;;;21.60;79.10;;;;;;5032853;28;20112;-71
2022/07/25 02:11:51;;;;;;;7.47;4.00;;;21.60;78.50;;;;;;5032469;28;20364;-70
2022/07/25 02:14:16;;;;;;;8.35;3.53;;;21.60;79.20;;;;;;5032571;28;20039;-70
2022/07/25 02:16:42;;;;;;;5.95;3.78;;;21.60;79.30;;;;;;5032951;28;20040;-71
2022/07/25 02:19:08;;;;;;;6.93;3.90;;;21.60;79.50;;;;;;5032583;28;20047;-71
2022/07/25 02:21:34;;;;;;;6.45;3.58;;;21.60;79.40;;;;;;5032574;28;20438;-71
2022/07/25 02:23:59;;;;;;;6.65;4.43;;;21.60;79.50;;;;;;5032637;28;20041;-71
2022/07/25 02:26:25;;;;;;;6.85;3.88;;;21.50;78.90;;;;;;5031157;28;20084;-71
2022/07/25 02:28:51;;;;;;;10.27;4.10;;;21.50;78.80;;;;;;5032762;28;20030;-70
2022/07/25 02:31:16;;;;;;;13.25;4.20;;;21.50;79.30;;;;;;5031098;28;20040;-70
2022/07/25 02:33:42;;;;;;;5.95;3.63;;;21.50;79.20;;;;;;5032228;28;20112;-71
2022/07/25 02:36:09;;;;;;;10.13;4.00;;;21.50;79.10;;;;;;5032212;28;20026;-71
2022/07/25 02:38:35;;;;;;;8.15;4.10;;;21.50;79.00;;;;;;5031137;28;20026;-71
2022/07/25 02:41:01;;;;;;;5.50;2.92;;;21.50;78.60;;;;;;5032323;28;20026;-71
2022/07/25 02:43:26;;;;;;;7.45;3.58;;;21.50;78.50;;;;;;5032528;28;20099;-71
2022/07/25 02:45:53;;;;;;;10.20;4.05;;;21.50;79.20;;;;;;5032226;28;20068;-71
2022/07/25 02:48:19;;;;;;;10.80;4.07;;;21.50;79.60;;;;;;5032196;28;20052;-71
2022/07/25 02:50:44;;;;;;;7.72;4.20;;;21.50;79.30;;;;;;5031757;28;20041;-72
2022/07/25 02:53:10;;;;;;;7.65;3.58;;;21.50;78.80;;;;;;5030835;28;20029;-72
2022/07/25 02:55:36;;;;;;;7.07;3.70;;;21.50;79.10;;;;;;5032238;28;20081;-70
2022/07/25 02:58:01;;;;;;;7.30;3.67;;;21.50;79.40;;;;;;5031063;28;20105;-70
2022/07/25 03:00:29;;;;;;;13.95;3.75;;;21.40;79.00;;;;;;5031715;28;20114;-71
2022/07/25 03:02:55;;;;;;;10.60;3.47;;;21.40;79.10;;;;;;5031663;28;20040;-71
2022/07/25 03:05:21;;;;;;;6.57;3.38;;;21.40;78.80;;;;;;5031584;28;20258;-70
2022/07/25 03:07:47;;;;;;;7.35;3.45;;;21.40;78.70;;;;;;5031971;28;20018;-71
2022/07/25 03:10:13;;;;;;;8.55;3.80;;;21.40;78.60;;;;;;5031398;28;20029;-71
2022/07/25 03:12:40;;;;;;;8.38;3.60;;;21.40;78.50;;;;;;5031288;28;20036;-70
2022/07/25 03:15:07;;;;;;;4.38;3.00;;;21.40;79.30;;;;;;5031319;28;20481;-71
2022/07/25 03:17:33;;;;;;;7.13;3.28;;;21.40;78.30;;;;;;5031527;28;20111;-71
2022/07/25 03:19:58;;;;;;;6.35;3.88;;;21.40;78.80;;;;;;5031546;28;20030;-70
2022/07/25 03:22:25;;;;;;;7.10;3.42;;;21.40;79.00;;;;;;5031756;28;20029;-70
2022/07/25 03:24:52;;;;;;;7.15;3.50;;;21.30;78.00;;;;;;5031052;28;20030;-72
2022/07/25 03:27:18;;;;;;;4.38;3.15;;;21.30;78.00;;;;;;5031208;28;20044;-71
2022/07/25 03:29:44;;;;;;;10.65;3.63;;;21.30;77.90;;;;;;5031116;28;20029;-70
2022/07/25 03:32:10;;;;;;;7.32;3.75;;;21.30;79.30;;;;;;5031429;28;20168;-70
2022/07/25 03:34:36;;;;;;;7.45;3.75;;;21.30;79.70;;;;;;5030565;28;20021;-71
2022/07/25 03:37:02;;;;;;;7.15;3.50;;;21.30;79.60;;;;;;5031133;28;20399;-71
2022/07/25 03:39:28;;;;;;;11.10;3.60;;;21.20;79.60;;;;;;5031110;28;20026;-71
2022/07/25 03:41:54;;;;;;;5.43;3.05;;;21.20;80.20;;;;;;5031146;28;20095;-71
2022/07/25 03:44:22;;;;;;;7.55;3.88;;;21.10;80.30;;;;;;5029988;28;20029;-72
2022/07/25 03:46:48;;;;;;;6.00;2.83;;;21.20;79.30;;;;;;5030468;28;20025;-71
2022/07/25 03:49:14;;;;;;;5.13;3.22;;;21.10;80.70;;;;;;5030983;28;20045;-71
2022/07/25 03:51:40;;;;;;;7.13;3.42;;;21.10;79.10;;;;;;5031077;28;20475;-71
2022/07/25 03:54:07;;;;;;;7.30;3.92;;;21.10;78.80;;;;;;5030017;28;20041;-71
2022/07/25 03:56:38;;;;;;;5.97;3.28;;;21.10;80.80;;;;;;5030718;28;20038;-71
2022/07/25 03:59:05;;;;;;;6.15;3.03;;;21.10;80.10;;;;;;5030694;28;20242;-71
2022/07/25 04:01:32;;;;;;;5.05;3.17;;;21.00;79.40;;;;;;5030707;28;20451;-72
2022/07/25 04:03:58;;;;;;;9.80;3.42;;;21.10;79.20;;;;;;5030885;28;20033;-72
2022/07/25 04:06:24;;;;;;;6.63;3.58;;;21.00;79.60;;;;;;5029787;28;20191;-72
2022/07/25 04:08:50;;;;;;;7.30;3.25;;;21.00;79.40;;;;;;5030748;28;20038;-72
2022/07/25 04:11:16;;;;;;;7.45;3.53;;;21.00;79.50;;;;;;5034840;28;20053;-72
2022/07/25 04:13:42;;;;;;;11.93;3.72;;;21.00;79.30;;;;;;5035542;28;20086;-72
2022/07/25 04:16:09;;;;;;;7.80;3.90;;;21.00;79.10;;;;;;5035232;28;20033;-72
2022/07/25 04:18:35;;;;;;;3.92;3.10;;;21.00;79.20;;;;;;5034145;28;20041;-70
2022/07/25 04:21:02;;;;;;;6.47;3.25;;;21.00;79.20;;;;;;5036037;28;20044;-71
2022/07/25 04:23:27;;;;;;;9.63;3.75;;;21.00;78.90;;;;;;5036833;28;20029;-72
2022/07/25 04:25:54;;;;;;;5.15;3.70;;;21.10;79.70;;;;;;5035707;28;20469;-72
2022/07/25 04:28:20;;;;;;;14.57;3.90;;;21.10;79.60;;;;;;5034020;28;20052;-72
2022/07/25 04:30:46;;;;;;;8.18;3.53;;;21.10;79.60;;;;;;5034593;28;20116;-72
2022/07/25 04:33:13;;;;;;;7.00;3.50;;;21.10;79.40;;;;;;5034674;28;20025;-72
2022/07/25 04:35:39;;;;;;;14.48;3.88;;;21.10;80.20;;;;;;5033572;28;20121;-71
2022/07/25 04:38:04;;;;;;;8.55;4.18;;;21.10;80.50;;;;;;5033842;28;20120;-71
2022/07/25 04:40:30;;;;;;;8.80;3.35;;;21.10;80.30;;;;;;5034938;28;20022;-71
2022/07/25 04:42:56;;;;;;;8.73;3.05;;;21.10;80.70;;;;;;5034669;28;20479;-72
2022/07/25 04:45:22;;;;;;;7.38;3.20;;;21.10;80.00;;;;;;5034359;28;20427;-70
2022/07/25 04:47:48;;;;;;;5.03;3.50;;;21.10;80.30;;;;;;5033167;28;20103;-69
2022/07/25 04:50:15;;;;;;;5.95;3.30;;;21.10;80.50;;;;;;5034308;28;20029;-71
2022/07/25 04:52:41;;;;;;;6.20;3.28;;;21.20;80.20;;;;;;5033589;28;20017;-71
2022/07/25 04:55:07;;;;;;;11.98;3.92;;;21.20;80.80;;;;;;5033895;28;20429;-71
2022/07/25 04:57:33;;;;;;;11.80;4.20;;;21.20;81.00;;;;;;5032938;28;20068;-70
2022/07/25 04:59:59;;;;;;;7.95;3.55;;;21.20;80.90;;;;;;5033959;28;20038;-71
2022/07/25 05:02:25;;;;;;;11.10;3.50;;;21.30;80.60;;;;;;5033871;28;20117;-71
2022/07/25 05:04:51;;;;;;;9.27;3.33;;;21.30;80.40;;;;;;5034431;28;20451;-70
2022/07/25 05:07:17;;;;;;;7.72;3.13;;;21.30;80.40;;;;;;5033914;28;20029;-71
2022/07/25 05:09:43;;;;;;;11.27;3.20;;;21.30;80.60;;;;;;5033924;28;20026;-71
2022/07/25 05:12:09;;;;;;;5.15;3.30;;;21.30;80.50;;;;;;5032709;28;20065;-70
2022/07/25 05:14:34;;;;;;;10.60;3.22;;;21.40;80.60;;;;;;5033712;28;20378;-72
2022/07/25 05:17:00;;;;;;;5.57;3.33;;;21.40;80.90;;;;;;5033801;28;20025;-71
2022/07/25 05:19:26;;;;;;;9.10;3.63;;;21.50;80.60;;;;;;5034232;28;20030;-72
2022/07/25 05:21:52;;;;;;;7.38;3.25;;;21.50;80.60;;;;;;5033121;28;20280;-72
2022/07/25 05:24:17;;;;;;;13.50;6.70;;;21.60;80.10;;;;;;5032401;28;20026;-71
2022/07/25 05:26:43;;;;;;;6.43;4.07;;;21.70;80.10;;;;;;5033395;28;20112;-71
2022/07/25 05:29:09;;;;;;;6.13;3.70;;;21.70;80.10;;;;;;5032486;28;20025;-72
2022/07/25 05:31:35;;;;;;;7.93;3.13;;;21.80;79.80;;;;;;5033951;28;20043;-71
2022/07/25 05:34:01;;;;;;;6.32;3.20;;;21.90;79.50;;;;;;5033489;28;20112;-71
2022/07/25 05:36:27;;;;;;;114.75;67.82;;;22.00;79.50;;;;;;5033475;28;20395;-70
2022/07/25 05:38:53;;;;;;;78.47;40.10;;;22.00;79.00;;;;;;5033332;28;20044;-70
2022/07/25 05:41:19;;;;;;;110.47;62.92;;;22.20;78.80;;;;;;5031961;28;20049;-69
2022/07/25 05:43:46;;;;;;;250.80;145.57;;;22.20;78.80;;;;;;5033246;28;20471;-70
2022/07/25 05:46:12;;;;;;;45.80;28.98;;;22.40;78.20;;;;;;5032916;28;20428;-72
2022/07/25 05:48:38;;;;;;;16.25;7.85;;;22.50;77.50;;;;;;5032915;28;20029;-71
2022/07/25 05:51:07;;;;;;;11.77;3.95;;;22.60;77.50;;;;;;5032613;28;20486;-71
2022/07/25 05:53:33;;;;;;;7.55;3.40;;;22.70;77.40;;;;;;5031651;28;20025;-70
2022/07/25 05:55:58;;;;;;;7.10;3.70;;;22.80;77.10;;;;;;5032803;28;20076;-69
2022/07/25 05:58:24;;;;;;;9.15;3.70;;;22.80;76.80;;;;;;5033042;28;20064;-72
2022/07/25 06:00:50;;;;;;;7.13;3.20;;;22.90;76.80;;;;;;5032633;28;20460;-70
2022/07/25 06:03:17;;;;;;;4.22;3.30;;;23.00;76.80;;;;;;5032907;28;20363;-74
2022/07/25 06:05:45;;;;;;;6.35;3.38;;;23.10;76.60;;;;;;5033037;28;20112;-72
2022/07/25 06:08:12;;;;;;;7.70;5.50;;;23.30;76.20;;;;;;5032614;28;20014;-71
2022/07/25 06:10:37;;;;;;;11.85;5.30;;;23.40;76.20;;;;;;5032983;28;20060;-71
2022/07/25 06:13:03;;;;;;;8.90;3.72;;;23.60;76.10;;;;;;5032856;28;20053;-70
2022/07/25 06:15:29;;;;;;;7.93;5.25;;;23.70;75.70;;;;;;5032425;28;20033;-69
2022/07/25 06:17:55;;;;;;;8.15;3.78;;;23.80;75.00;;;;;;5031472;28;20037;-69
2022/07/25 06:20:20;;;;;;;4.25;3.25;;;23.90;75.30;;;;;;5032340;28;20120;-75
2022/07/25 06:22:46;;;;;;;5.30;3.05;;;23.90;75.00;;;;;;5032674;28;20021;-69
2022/07/25 06:25:12;;;;;;;8.25;3.40;;;24.00;75.10;;;;;;5032675;28;20109;-73
2022/07/25 06:27:38;;;;;;;5.70;3.75;;;24.10;75.20;;;;;;5032838;28;20403;-73
2022/07/25 06:30:05;;;;;;;4.55;3.53;;;24.10;75.00;;;;;;5014772;28;20026;-72
2022/07/25 06:32:31;;;;;;;7.73;3.17;;;24.20;75.20;;;;;;5031601;28;20052;-72
2022/07/25 06:34:56;;;;;;;9.20;4.63;;;24.20;74.80;;;;;;5032883;28;20059;-72
2022/07/25 06:37:22;;;;;;;8.38;5.22;;;24.40;74.40;;;;;;5033348;28;20141;-73
2022/07/25 06:39:48;;;;;;;9.98;3.95;;;24.50;74.40;;;;;;5032567;28;20042;-74
2022/07/25 06:42:14;;;;;;;4.20;3.35;;;24.60;74.80;;;;;;5032404;28;20030;-73
2022/07/25 06:44:39;;;;;;;22.70;13.57;;;24.60;74.30;;;;;;5021081;28;20026;-74
2022/07/25 06:47:11;;;;;;;60.40;35.40;;;24.80;74.20;;;;;;5012756;28;20333;-75
2022/07/25 06:49:37;;;;;;;48.33;30.15;;;24.90;74.40;;;;;;5013579;28;20010;-70
2022/07/25 06:52:04;;;;;;;5.60;4.15;;;25.00;74.30;;;;;;5012521;28;20037;-76
2022/07/25 06:54:30;;;;;;;6.13;3.73;;;25.10;74.00;;;;;;5012901;28;20042;-75
2022/07/25 06:56:56;;;;;;;8.45;4.25;;;25.20;73.50;;;;;;5012377;28;20282;-72
2022/07/25 06:59:22;;;;;;;5.10;3.92;;;25.30;73.00;;;;;;5012031;28;20117;-72
2022/07/25 07:01:47;;;;;;;7.95;4.28;;;25.30;73.00;;;;;;5012289;28;20050;-75
2022/07/25 07:04:13;;;;;;;8.23;4.70;;;25.40;73.10;;;;;;5011671;28;20045;-74
2022/07/25 07:06:39;;;;;;;8.65;5.78;;;25.40;72.80;;;;;;5011899;28;20053;-74
2022/07/25 07:09:04;;;;;;;6.53;4.05;;;25.60;72.90;;;;;;5011739;28;20042;-73
2022/07/25 07:11:30;;;;;;;6.78;4.03;;;25.60;72.40;;;;;;5012163;28;20372;-72
2022/07/25 07:13:56;;;;;;;8.80;4.50;;;25.70;72.20;;;;;;5012494;28;20057;-71
2022/07/25 07:16:21;;;;;;;24.67;17.35;;;25.60;71.40;;;;;;5012325;28;20036;-70
2022/07/25 07:18:47;;;;;;;14.70;9.30;;;25.70;71.50;;;;;;5011870;28;20068;-71
2022/07/25 07:21:13;;;;;;;6.78;5.38;;;25.80;71.50;;;;;;5011903;28;20088;-71
2022/07/25 07:23:39;;;;;;;7.30;4.10;;;25.90;71.40;;;;;;5011814;28;20037;-73
2022/07/25 07:26:05;;;;;;;7.80;4.38;;;26.00;70.60;;;;;;5010904;28;20478;-71
2022/07/25 07:28:31;;;;;;;7.03;4.25;;;26.10;71.40;;;;;;5011948;28;20026;-71
2022/07/25 07:30:56;;;;;;;4.90;4.40;;;26.20;70.80;;;;;;5011560;28;20030;-72
2022/07/25 07:33:22;;;;;;;7.53;3.88;;;26.30;70.80;;;;;;5012529;28;20026;-71
2022/07/25 07:35:48;;;;;;;14.95;8.73;;;26.50;70.40;;;;;;5018261;28;20048;-72
2022/07/25 07:38:13;;;;;;;7.22;4.78;;;26.60;70.60;;;;;;5032120;28;20048;-69
2022/07/25 07:40:39;;;;;;;10.68;4.63;;;26.80;69.70;;;;;;5032755;28;20037;-71
2022/07/25 07:43:05;;;;;;;6.13;4.40;;;26.80;69.30;;;;;;5031801;28;20089;-69
2022/07/25 07:45:31;;;;;;;6.70;4.70;;;26.90;68.80;;;;;;5031289;28;20029;-72
2022/07/25 07:47:57;;;;;;;7.03;4.38;;;26.90;68.10;;;;;;5030364;28;20473;-71
2022/07/25 07:50:26;;;;;;;5.10;4.22;;;27.10;68.30;;;;;;5030775;28;20037;-71
2022/07/25 07:52:54;;;;;;;5.88;4.38;;;27.20;68.50;;;;;;5031855;28;20041;-72
2022/07/25 07:58:04;;;;;;;9.85;4.25;;;27.50;68.30;;;;;;5031262;28;19920;-72
2022/07/25 08:00:30;;;;;;;6.85;4.32;;;27.70;68.40;;;;;;5031444;28;20033;-73
2022/07/25 08:02:57;;;;;;;10.35;4.82;;;27.90;68.30;;;;;;5030793;28;20173;-72
2022/07/25 08:05:24;;;;;;;8.43;4.95;;;28.00;67.20;;;;;;5030860;28;20030;-71
2022/07/25 08:07:50;;;;;;;6.07;5.00;;;28.10;67.70;;;;;;5031959;28;20029;-72
2022/07/25 08:10:21;;;;;;;7.15;4.53;;;28.20;66.80;;;;;;5030509;28;20091;-72
2022/07/25 08:12:48;;;;;;;5.93;4.78;;;28.40;66.50;;;;;;5031383;28;20021;-72
2022/07/25 08:15:14;;;;;;;7.00;4.60;;;28.40;66.60;;;;;;5030884;28;20060;-72
2022/07/25 08:17:42;;;;;;;9.00;5.22;;;28.70;65.50;;;;;;5030944;28;20125;-71
2022/07/25 08:20:09;;;;;;;8.98;5.13;;;28.90;66.10;;;;;;5029605;28;20434;-72
2022/07/25 08:22:46;;;;;;;7.00;4.95;;;29.30;64.50;;;;;;5031914;28;20025;-72
2022/07/25 08:25:18;;;;;;;5.55;4.68;;;29.70;64.90;;;;;;5031521;28;20084;-70
2022/07/25 08:27:45;;;;;;;9.50;4.88;;;30.30;62.90;;;;;;5031065;28;20264;-70
2022/07/25 08:30:12;;;;;;;9.48;4.97;;;30.90;62.50;;;;;;5030990;28;20375;-71
2022/07/25 08:32:51;;;;;;;10.32;5.03;;;31.60;60.50;;;;;;5030960;28;20048;-72
2022/07/25 08:35:19;;;;;;;8.63;4.82;;;32.30;59.20;;;;;;5031327;28;20041;-71
2022/07/25 08:37:45;;;;;;;7.65;4.78;;;32.90;59.60;;;;;;5030565;28;20026;-72
2022/07/25 08:40:13;;;;;;;54.70;35.25;;;33.40;56.70;;;;;;5031005;28;20045;-70
2022/07/25 08:42:39;;;;;;;120.25;67.53;;;33.80;55.10;;;;;;5031074;28;20053;-68
2022/07/25 08:45:07;;;;;;;16.88;9.63;;;34.70;55.70;;;;;;5031020;28;20056;-71
2022/07/25 08:47:34;;;;;;;104.72;67.15;;;35.30;52.00;;;;;;5029604;28;20033;-69
2022/07/25 08:50:03;;;;;;;7.97;6.65;;;35.30;49.40;;;;;;5030491;28;20025;-74
2022/07/25 08:52:29;;;;;;;8.73;5.57;;;35.60;50.60;;;;;;5031172;28;20025;-71
2022/07/25 08:54:55;;;;;;;9.15;5.57;;;35.80;49.80;;;;;;5030511;28;20040;-72
2022/07/25 08:57:21;;;;;;;8.10;5.57;;;35.90;48.00;;;;;;5033249;28;20154;-72
2022/07/25 08:59:46;;;;;;;7.93;5.50;;;35.70;47.80;;;;;;5034292;28;20129;-73
2022/07/25 09:02:13;;;;;;;7.13;5.43;;;36.20;47.80;;;;;;5033918;28;20413;-74
2022/07/25 09:04:39;;;;;;;9.85;5.75;;;36.50;47.20;;;;;;5035070;28;20083;-73
2022/07/25 09:07:08;;;;;;;6.72;5.45;;;36.90;47.70;;;;;;5035043;28;20037;-72
2022/07/25 09:09:37;;;;;;;6.70;5.57;;;37.20;48.10;;;;;;5033787;28;20029;-72
2022/07/25 09:12:06;;;;;;;5.85;5.03;;;37.20;45.40;;;;;;5034461;28;20060;-73
2022/07/25 09:14:43;;;;;;;8.43;5.70;;;36.60;44.90;;;;;;5034365;28;20026;-71
2022/07/25 09:17:08;;;;;;;6.18;5.10;;;36.70;45.50;;;;;;5034482;28;20103;-73
2022/07/25 09:19:34;;;;;;;14.77;11.52;;;36.30;44.50;;;;;;5034608;28;20155;-71
2022/07/25 09:22:01;;;;;;;20.52;14.10;;;36.20;44.80;;;;;;5034202;28;20038;-71
2022/07/25 09:24:28;;;;;;;9.13;6.70;;;36.60;44.60;;;;;;5033514;28;20034;-71
2022/07/25 09:26:57;;;;;;;10.40;7.00;;;36.80;44.30;;;;;;5033975;28;20033;-71
2022/07/25 09:29:31;;;;;;;16.45;13.00;;;37.00;44.00;;;;;;5032498;28;20036;-72
2022/07/25 09:31:58;;;;;;;8.15;5.35;;;37.00;43.80;;;;;;5033618;28;20035;-70
2022/07/25 09:34:37;;;;;;;8.90;5.32;;;36.80;43.70;;;;;;5033920;28;20028;-73
2022/07/25 09:37:07;;;;;;;7.25;6.22;;;36.60;43.90;;;;;;5033730;28;20029;-73
2022/07/25 09:39:41;;;;;;;8.23;5.25;;;36.60;43.80;;;;;;5033502;28;20514;-73
2022/07/25 09:42:15;;;;;;;6.78;5.45;;;36.20;44.10;;;;;;5033620;28;20034;-71
2022/07/25 09:44:41;;;;;;;9.40;5.75;;;36.20;43.80;;;;;;5033285;28;20036;-72
2022/07/25 09:47:15;;;;;;;7.55;6.40;;;35.70;43.80;;;;;;5032298;28;20017;-73
2022/07/25 09:49:42;;;;;;;7.70;5.50;;;36.00;44.10;;;;;;5033580;28;20072;-73
2022/07/25 09:52:08;;;;;;;;;;;35.70;44.90;;;;;;5033354;28;20086;-72
2022/07/25 09:54:34;;;;;;;7.05;5.18;;;36.00;44.10;;;;;;5033129;28;19920;-68
2022/07/25 09:57:00;;;;;;;6.57;5.28;;;35.30;44.90;;;;;;5033198;28;20057;-70
2022/07/25 09:59:26;;;;;;;6.35;5.45;;;35.70;46.40;;;;;;5033139;28;20352;-70
2022/07/25 10:02:05;;;;;;;8.27;5.78;;;35.50;44.80;;;;;;5033406;28;20052;-69
2022/07/25 10:05:09;;;;;;;8.27;5.50;;;35.80;46.10;;;;;;5032697;28;20049;-69
2022/07/25 10:07:41;;;;;;;9.23;5.55;;;35.70;44.70;;;;;;5013764;28;20045;-69
2022/07/25 10:10:07;;;;;;;9.00;5.82;;;35.00;46.10;;;;;;5032381;28;20359;-68
2022/07/25 10:12:33;;;;;;;8.02;5.18;;;34.90;46.20;;;;;;5032413;28;20490;-71
2022/07/25 10:15:17;;;;;;;8.52;5.45;;;35.10;46.20;;;;;;5031445;28;20033;-71
2022/07/25 10:17:43;;;;;;;7.05;5.18;;;35.20;46.30;;;;;;5032707;28;20527;-71
2022/07/25 10:20:09;;;;;;;5.57;4.88;;;35.20;46.30;;;;;;5031331;28;20068;-71
2022/07/25 10:22:40;;;;;;;6.47;5.15;;;34.90;46.20;;;;;;5033070;28;20320;-72
2022/07/25 10:25:12;;;;;;;5.60;5.00;;;34.80;46.80;;;;;;5032543;28;20033;-71
2022/07/25 10:27:47;;;;;;;7.55;5.60;;;35.00;47.00;;;;;;5032535;28;20365;-71
2022/07/25 10:30:22;;;;;;;8.63;5.20;;;34.90;46.10;;;;;;5032149;28;20030;-70
2022/07/25 10:33:01;;;;;;;8.93;5.05;;;34.60;46.30;;;;;;5031045;28;20033;-71
2022/07/25 10:35:27;;;;;;;5.93;4.47;;;34.80;47.00;;;;;;5032087;28;20041;-70
2022/07/25 10:37:55;;;;;;;7.78;4.88;;;34.80;46.70;;;;;;5032389;28;20018;-70
2022/07/25 10:40:31;;;;;;;6.05;5.45;;;34.80;47.70;;;;;;5032009;28;20125;-70
2022/07/25 10:43:06;;;;;;;7.55;5.50;;;34.80;46.90;;;;;;5031223;28;20479;-69
2022/07/25 10:45:43;;;;;;;6.57;5.55;;;34.60;46.30;;;;;;5032036;28;20033;-69
2022/07/25 10:48:11;;;;;;;9.68;6.28;;;34.50;46.90;;;;;;5032031;28;20040;-70
2022/07/25 10:50:56;;;;;;;7.25;5.97;;;34.20;46.80;;;;;;5031866;28;20041;-71
2022/07/25 10:53:31;;;;;;;8.80;5.38;;;34.30;47.00;;;;;;5031867;28;20030;-71
2022/07/25 10:56:21;;;;;;;9.52;5.95;;;34.40;47.50;;;;;;5031656;28;20049;-71
2022/07/25 10:58:52;;;;;;;18.50;13.25;;;34.60;47.80;;;;;;5032611;28;20297;-71
2022/07/25 11:01:30;;;;;;;8.70;6.60;;;34.60;47.40;;;;;;5030877;28;20244;-72
2022/07/25 11:03:57;;;;;;;9.68;5.50;;;34.30;46.60;;;;;;5031895;28;20042;-70
2022/07/25 11:06:34;;;;;;;;;;;34.10;46.60;;;;;;5023361;28;20369;-71
2022/07/25 11:09:00;;;;;;;8.65;5.38;;;34.10;47.40;;;;;;5012169;28;20367;-72
2022/07/25 11:11:41;;;;;;;7.82;6.22;;;34.20;47.20;;;;;;5012294;28;20121;-72
2022/07/25 11:14:21;;;;;;;6.72;5.60;;;34.10;47.20;;;;;;5012029;28;20030;-72
2022/07/25 11:16:50;;;;;;;8.70;5.65;;;34.30;47.70;;;;;;5012627;28;20034;-72
2022/07/25 11:19:27;;;;;;;6.72;5.47;;;34.20;47.20;;;;;;5011749;28;20034;-71
2022/07/25 11:21:55;;;;;;;7.05;5.45;;;34.00;46.90;;;;;;5012087;28;20022;-73
2022/07/25 11:24:32;;;;;;;8.48;5.68;;;33.90;47.60;;;;;;5010643;28;20044;-72
2022/07/25 11:26:58;;;;;;;;;;;33.80;46.90;;;;;;5012362;28;20126;-71
2022/07/25 11:29:26;;;;;;;8.88;5.68;;;33.80;47.30;;;;;;5012337;28;19949;-72
2022/07/25 11:32:05;;;;;;;10.68;6.13;;;33.70;47.80;;;;;;5012175;28;20092;-72
2022/07/25 11:34:36;;;;;;;6.50;5.78;;;33.50;48.40;;;;;;5012067;28;20087;-72
2022/07/25 11:37:06;;;;;;;8.20;5.93;;;33.30;47.90;;;;;;5012341;28;20045;-72
2022/07/25 11:39:35;;;;;;;9.15;5.70;;;33.10;48.80;;;;;;5011273;28;20092;-71
2022/07/25 11:42:10;;;;;;;7.38;5.47;;;33.10;49.30;;;;;;5011209;28;20038;-72
2022/07/25 11:44:41;;;;;;;7.25;5.95;;;33.00;48.90;;;;;;5011499;28;20498;-73
2022/07/25 11:47:20;;;;;;;7.35;5.45;;;33.00;49.60;;;;;;5011492;28;20057;-70
2022/07/25 11:49:48;;;;;;;7.30;5.55;;;32.90;48.70;;;;;;5011958;28;20026;-72
2022/07/25 11:52:34;;;;;;;10.23;5.68;;;33.00;48.90;;;;;;5011327;28;20037;-70
2022/07/25 11:55:07;;;;;;;333.30;226.95;;;33.00;49.30;;;;;;5011046;28;20488;-73
2022/07/25 11:57:36;;;;;;;132.95;101.97;;;33.00;49.40;;;;;;5011233;28;20041;-70
2022/07/25 12:00:07;;;;;;;10.65;7.63;;;33.10;49.80;;;;;;5011284;28;20485;-71
2022/07/25 12:02:36;;;;;;;7.85;5.90;;;33.10;49.70;;;;;;5011038;28;20030;-71
2022/07/25 12:05:10;;;;;;;7.35;5.90;;;33.10;49.80;;;;;;5010993;28;20018;-71
2022/07/25 12:07:47;;;;;;;7.97;5.75;;;33.00;49.80;;;;;;5011653;28;20116;-71
2022/07/25 12:10:17;;;;;;;9.03;5.50;;;33.10;50.80;;;;;;5010918;28;20461;-70
2022/07/25 12:12:43;;;;;;;7.82;6.32;;;33.10;50.10;;;;;;5009665;28;20030;-70
2022/07/25 12:15:12;;;;;;;9.02;6.50;;;33.00;50.10;;;;;;5010915;28;20025;-70
2022/07/25 12:17:39;;;;;;;8.00;5.30;;;32.80;50.20;;;;;;5010766;28;20030;-71
2022/07/25 12:20:09;;;;;;;11.43;6.15;;;32.70;50.70;;;;;;5011272;28;20396;-70
2022/07/25 12:22:35;;;;;;;7.07;5.38;;;32.60;51.10;;;;;;5011487;28;20026;-70
2022/07/25 12:25:01;;;;;;;8.02;5.53;;;32.60;51.30;;;;;;5010823;28;20044;-71
2022/07/25 12:27:26;;;;;;;14.40;5.90;;;32.60;50.80;;;;;;5011188;28;20105;-72
2022/07/25 12:29:52;;;;;;;9.77;6.43;;;32.60;51.20;;;;;;5010939;28;20030;-71
2022/07/25 12:32:18;;;;;;;12.05;7.85;;;32.50;51.30;;;;;;5012581;28;20034;-72
2022/07/25 12:34:43;;;;;;;10.20;6.03;;;32.50;51.20;;;;;;5014370;28;20096;-70
2022/07/25 12:37:09;;;;;;;8.45;5.72;;;32.40;51.10;;;;;;5014428;28;20121;-70
2022/07/25 12:39:35;;;;;;;8.80;5.03;;;32.40;51.30;;;;;;5014818;28;20057;-69
2022/07/25 12:42:00;;;;;;;8.70;6.28;;;32.30;51.10;;;;;;5013525;28;20046;-70
2022/07/25 12:44:26;;;;;;;10.32;5.90;;;32.40;51.20;;;;;;5014462;28;20124;-70
2022/07/25 12:46:51;;;;;;;9.20;5.95;;;32.40;50.80;;;;;;5014745;28;20030;-70
2022/07/25 12:49:17;;;;;;;10.25;5.38;;;32.30;49.50;;;;;;5014017;28;20129;-69